sensor_id;sensor_type;location;lat;lon;timestamp;temperature;humidity
20068;DHT22;10194;50.824;7.134;2023-04-24T00:00:02;11.60;99.90
20068;DHT22;10194;50.824;7.134;2023-04-24T00:02:31;11.60;99.90
20068;DHT22;10194;50.824;7.134;2023-04-24T00:04:58;11.60;99.90
20068;DHT22;10194;50.824;7.134;2023-04-24T00:07:27;11.60;99.90
20068;DHT22;10194;50.824;7.134;2023-04-24T00:09:53;11.50;99.90
20068;DHT22;10194;50.824;7.134;2023-04-24T00:12:19;11.50;99.90
20068;DHT22;10194;50.824;7.134;2023-04-24T00:14:45;11.50;99.90
20068;DHT22;10194;50.824;7.134;2023-04-24T00:17:11;11.60;99.90
20068;DHT22;10194;50.824;7.134;2023-04-24T00:19:37;11.60;99.90
20068;DHT22;10194;50.824;7.134;2023-04-24T00:22:03;11.50;99.90
20068;DHT22;10194;50.824;7.134;2023-04-24T00:24:29;11.50;99.90
20068;DHT22;10194;50.824;7.134;2023-04-24T00:26:55;11.40;99.90
20068;DHT22;10194;50.824;7.134;2023-04-24T00:29:20;11.30;99.90
20068;DHT22;10194;50.824;7.134;2023-04-24T00:31:46;11.30;99.90
20068;DHT22;10194;50.824;7.134;2023-04-24T00:34:12;11.30;99.90
20068;DHT22;10194;50.824;7.134;2023-04-24T00:36:38;11.30;99.90
20068;DHT22;10194;50.824;7.134;2023-04-24T00:39:03;11.30;99.90
20068;DHT22;10194;50.824;7.134;2023-04-24T00:41:29;11.30;99.90
20068;DHT22;10194;50.824;7.134;2023-04-24T00:43:55;11.30;99.90
20068;DHT22;10194;50.824;7.134;2023-04-24T00:46:21;11.40;99.90
20068;DHT22;10194;50.824;7.134;2023-04-24T00:48:47;11.40;99.90
20068;DHT22;10194;50.824;7.134;2023-04-24T00:51:13;11.40;99.90
20068;DHT22;10194;50.824;7.134;2023-04-24T00:53:39;11.50;99.90
20068;DHT22;10194;50.824;7.134;2023-04-24T00:56:05;11.50;99.90
20068;DHT22;10194;50.824;7.134;2023-04-24T00:58:31;11.50;99.90
20068;DHT22;10194;50.824;7.134;2023-04-24T01:00:58;11.50;99.90
20068;DHT22;10194;50.824;7.134;2023-04-24T01:03:29;11.50;99.90
20068;DHT22;10194;50.824;7.134;2023-04-24T01:05:57;11.60;99.90
20068;DHT22;10194;50.824;7.134;2023-04-24T01:08:24;11.60;99.90
20068;DHT22;10194;50.824;7.134;2023-04-24T01:10:52;11.60;99.90
20068;DHT22;10194;50.824;7.134;2023-04-24T01:13:19;11.60;99.90
20068;DHT22;10194;50.824;7.134;2023-04-24T01:15:46;11.60;99.90
20068;DHT22;10194;50.824;7.134;2023-04-24T01:18:13;11.60;99.90
20068;DHT22;10194;50.824;7.134;2023-04-24T01:20:40;11.60;99.90
20068;DHT22;10194;50.824;7.134;2023-04-24T01:23:08;11.60;99.90
20068;DHT22;10194;50.824;7.134;2023-04-24T01:25:34;11.60;99.90
20068;DHT22;10194;50.824;7.134;2023-04-24T01:28:00;11.60;99.90
20068;DHT22;10194;50.824;7.134;2023-04-24T01:30:26;11.60;99.90
20068;DHT22;10194;50.824;7.134;2023-04-24T01:32:53;11.60;99.90
20068;DHT22;10194;50.824;7.134;2023-04-24T01:35:19;11.60;99.90
20068;DHT22;10194;50.824;7.134;2023-04-24T01:37:45;11.60;99.90
20068;DHT22;10194;50.824;7.134;2023-04-24T01:40:11;11.50;99.90
20068;DHT22;10194;50.824;7.134;2023-04-24T01:42:37;11.40;99.90
20068;DHT22;10194;50.824;7.134;2023-04-24T01:45:04;11.30;99.90
20068;DHT22;10194;50.824;7.134;2023-04-24T01:47:31;11.30;99.90
20068;DHT22;10194;50.824;7.134;2023-04-24T01:49:57;11.20;99.90
20068;DHT22;10194;50.824;7.134;2023-04-24T01:52:24;11.20;99.90
20068;DHT22;10194;50.824;7.134;2023-04-24T01:54:50;11.20;99.90
20068;DHT22;10194;50.824;7.134;2023-04-24T01:57:16;11.20;99.90
20068;DHT22;10194;50.824;7.134;2023-04-24T01:59:42;11.20;99.90
20068;DHT22;10194;50.824;7.134;2023-04-24T02:02:08;11.20;99.90
20068;DHT22;10194;50.824;7.134;2023-04-24T02:04:33;11.10;99.90
20068;DHT22;10194;50.824;7.134;2023-04-24T02:06:59;11.00;99.90
20068;DHT22;10194;50.824;7.134;2023-04-24T02:09:25;10.90;99.90
20068;DHT22;10194;50.824;7.134;2023-04-24T02:11:51;10.90;99.90
20068;DHT22;10194;50.824;7.134;2023-04-24T02:14:16;10.90;99.90
20068;DHT22;10194;50.824;7.134;2023-04-24T02:16:42;10.80;99.90
20068;DHT22;10194;50.824;7.134;2023-04-24T02:19:09;10.80;99.90
20068;DHT22;10194;50.824;7.134;2023-04-24T02:21:35;10.70;99.90
20068;DHT22;10194;50.824;7.134;2023-04-24T02:24:01;10.70;99.90
20068;DHT22;10194;50.824;7.134;2023-04-24T02:26:27;10.60;99.90
20068;DHT22;10194;50.824;7.134;2023-04-24T02:28:53;10.50;99.90
20068;DHT22;10194;50.824;7.134;2023-04-24T02:31:19;10.40;99.90
20068;DHT22;10194;50.824;7.134;2023-04-24T02:33:44;10.40;99.90
20068;DHT22;10194;50.824;7.134;2023-04-24T02:36:10;10.30;99.90
20068;DHT22;10194;50.824;7.134;2023-04-24T02:38:36;10.20;99.90
20068;DHT22;10194;50.824;7.134;2023-04-24T02:41:02;10.20;99.90
20068;DHT22;10194;50.824;7.134;2023-04-24T02:43:31;10.00;99.90
20068;DHT22;10194;50.824;7.134;2023-04-24T02:45:58;9.90;99.90
20068;DHT22;10194;50.824;7.134;2023-04-24T02:48:24;9.80;99.90
20068;DHT22;10194;50.824;7.134;2023-04-24T02:50:50;9.70;99.90
20068;DHT22;10194;50.824;7.134;2023-04-24T02:53:16;9.60;99.90
20068;DHT22;10194;50.824;7.134;2023-04-24T02:55:42;9.40;99.90
20068;DHT22;10194;50.824;7.134;2023-04-24T02:58:07;9.40;99.90
20068;DHT22;10194;50.824;7.134;2023-04-24T03:00:33;9.40;99.90
20068;DHT22;10194;50.824;7.134;2023-04-24T03:02:59;9.50;99.90
20068;DHT22;10194;50.824;7.134;2023-04-24T03:05:25;9.50;99.90
20068;DHT22;10194;50.824;7.134;2023-04-24T03:07:52;9.60;99.90
20068;DHT22;10194;50.824;7.134;2023-04-24T03:10:18;9.60;99.90
20068;DHT22;10194;50.824;7.134;2023-04-24T03:12:44;9.60;99.90
20068;DHT22;10194;50.824;7.134;2023-04-24T03:15:10;9.60;99.90
20068;DHT22;10194;50.824;7.134;2023-04-24T03:17:35;9.70;99.90
20068;DHT22;10194;50.824;7.134;2023-04-24T03:20:02;9.70;99.90
20068;DHT22;10194;50.824;7.134;2023-04-24T03:22:30;9.70;99.90
20068;DHT22;10194;50.824;7.134;2023-04-24T03:24:58;9.70;99.90
20068;DHT22;10194;50.824;7.134;2023-04-24T03:27:23;9.60;99.90
20068;DHT22;10194;50.824;7.134;2023-04-24T03:29:49;9.60;99.90
20068;DHT22;10194;50.824;7.134;2023-04-24T03:32:19;9.60;99.90
20068;DHT22;10194;50.824;7.134;2023-04-24T03:34:45;9.60;99.90
20068;DHT22;10194;50.824;7.134;2023-04-24T03:37:10;9.50;99.90
20068;DHT22;10194;50.824;7.134;2023-04-24T03:39:36;9.50;99.90
20068;DHT22;10194;50.824;7.134;2023-04-24T03:42:02;9.40;99.90
20068;DHT22;10194;50.824;7.134;2023-04-24T03:44:28;9.30;99.90
20068;DHT22;10194;50.824;7.134;2023-04-24T03:46:54;9.30;99.90
20068;DHT22;10194;50.824;7.134;2023-04-24T03:49:20;9.30;99.90
20068;DHT22;10194;50.824;7.134;2023-04-24T03:51:46;9.30;99.90
20068;DHT22;10194;50.824;7.134;2023-04-24T03:54:11;9.40;99.90
20068;DHT22;10194;50.824;7.134;2023-04-24T03:56:37;9.40;99.90
20068;DHT22;10194;50.824;7.134;2023-04-24T03:59:03;9.40;99.90
20068;DHT22;10194;50.824;7.134;2023-04-24T04:01:29;9.30;99.90
20068;DHT22;10194;50.824;7.134;2023-04-24T04:03:56;9.10;99.90
20068;DHT22;10194;50.824;7.134;2023-04-24T04:06:21;9.00;99.90
20068;DHT22;10194;50.824;7.134;2023-04-24T04:08:47;9.00;99.90
20068;DHT22;10194;50.824;7.134;2023-04-24T04:11:13;8.90;99.90
20068;DHT22;10194;50.824;7.134;2023-04-24T04:13:39;8.80;99.90
20068;DHT22;10194;50.824;7.134;2023-04-24T04:16:05;8.80;99.90
20068;DHT22;10194;50.824;7.134;2023-04-24T04:18:31;8.90;99.90
20068;DHT22;10194;50.824;7.134;2023-04-24T04:20:56;9.00;99.90
20068;DHT22;10194;50.824;7.134;2023-04-24T04:23:22;9.10;99.90
20068;DHT22;10194;50.824;7.134;2023-04-24T04:25:48;9.10;99.90
20068;DHT22;10194;50.824;7.134;2023-04-24T04:28:15;9.20;99.90
20068;DHT22;10194;50.824;7.134;2023-04-24T04:30:41;9.30;99.90
20068;DHT22;10194;50.824;7.134;2023-04-24T04:33:07;9.30;99.90
20068;DHT22;10194;50.824;7.134;2023-04-24T04:35:34;9.30;99.90
20068;DHT22;10194;50.824;7.134;2023-04-24T04:38:00;9.30;99.90
20068;DHT22;10194;50.824;7.134;2023-04-24T04:40:26;9.40;99.90
20068;DHT22;10194;50.824;7.134;2023-04-24T04:42:53;9.40;99.90
20068;DHT22;10194;50.824;7.134;2023-04-24T04:45:19;9.40;99.90
20068;DHT22;10194;50.824;7.134;2023-04-24T04:47:46;9.40;99.90
20068;DHT22;10194;50.824;7.134;2023-04-24T04:50:12;9.40;99.90
20068;DHT22;10194;50.824;7.134;2023-04-24T04:52:37;9.40;99.90
20068;DHT22;10194;50.824;7.134;2023-04-24T04:55:03;9.40;99.90
20068;DHT22;10194;50.824;7.134;2023-04-24T04:57:30;9.40;99.90
20068;DHT22;10194;50.824;7.134;2023-04-24T04:59:56;9.40;99.90
20068;DHT22;10194;50.824;7.134;2023-04-24T05:02:22;9.40;99.90
20068;DHT22;10194;50.824;7.134;2023-04-24T05:04:47;9.50;99.90
20068;DHT22;10194;50.824;7.134;2023-04-24T05:07:13;9.50;99.90
20068;DHT22;10194;50.824;7.134;2023-04-24T05:09:39;9.50;99.90
20068;DHT22;10194;50.824;7.134;2023-04-24T05:12:05;9.50;99.90
20068;DHT22;10194;50.824;7.134;2023-04-24T05:14:30;9.60;99.90
20068;DHT22;10194;50.824;7.134;2023-04-24T05:16:56;9.50;99.90
20068;DHT22;10194;50.824;7.134;2023-04-24T05:19:22;9.50;99.90
20068;DHT22;10194;50.824;7.134;2023-04-24T05:21:47;9.50;99.90
20068;DHT22;10194;50.824;7.134;2023-04-24T05:24:13;9.50;99.90
20068;DHT22;10194;50.824;7.134;2023-04-24T05:26:39;9.50;99.90
20068;DHT22;10194;50.824;7.134;2023-04-24T05:29:05;9.50;99.90
20068;DHT22;10194;50.824;7.134;2023-04-24T05:31:31;9.60;99.90
20068;DHT22;10194;50.824;7.134;2023-04-24T05:33:56;9.60;99.90
20068;DHT22;10194;50.824;7.134;2023-04-24T05:36:22;9.60;99.90
20068;DHT22;10194;50.824;7.134;2023-04-24T05:38:48;9.60;99.90
20068;DHT22;10194;50.824;7.134;2023-04-24T05:41:14;9.60;99.90
20068;DHT22;10194;50.824;7.134;2023-04-24T05:43:40;9.60;99.90
20068;DHT22;10194;50.824;7.134;2023-04-24T05:46:06;9.60;99.90
20068;DHT22;10194;50.824;7.134;2023-04-24T05:48:31;9.70;99.90
20068;DHT22;10194;50.824;7.134;2023-04-24T05:50:57;9.70;99.90
20068;DHT22;10194;50.824;7.134;2023-04-24T05:53:23;9.60;99.90
20068;DHT22;10194;50.824;7.134;2023-04-24T05:55:48;9.70;99.90
20068;DHT22;10194;50.824;7.134;2023-04-24T05:58:15;9.60;99.90
20068;DHT22;10194;50.824;7.134;2023-04-24T06:00:40;9.60;99.90
20068;DHT22;10194;50.824;7.134;2023-04-24T06:03:08;9.60;99.90
20068;DHT22;10194;50.824;7.134;2023-04-24T06:05:34;9.60;99.90
20068;DHT22;10194;50.824;7.134;2023-04-24T06:08:00;9.70;99.90
20068;DHT22;10194;50.824;7.134;2023-04-24T06:10:26;9.70;99.90
20068;DHT22;10194;50.824;7.134;2023-04-24T06:12:51;9.70;99.90
20068;DHT22;10194;50.824;7.134;2023-04-24T06:15:17;9.70;99.90
20068;DHT22;10194;50.824;7.134;2023-04-24T06:17:43;9.70;99.90
20068;DHT22;10194;50.824;7.134;2023-04-24T06:20:09;9.70;99.90
20068;DHT22;10194;50.824;7.134;2023-04-24T06:22:36;9.70;99.90
20068;DHT22;10194;50.824;7.134;2023-04-24T06:25:02;9.80;99.90
20068;DHT22;10194;50.824;7.134;2023-04-24T06:27:28;9.80;99.90
20068;DHT22;10194;50.824;7.134;2023-04-24T06:29:53;9.80;99.90
20068;DHT22;10194;50.824;7.134;2023-04-24T06:32:24;9.90;99.90
20068;DHT22;10194;50.824;7.134;2023-04-24T06:34:53;10.00;99.90
20068;DHT22;10194;50.824;7.134;2023-04-24T06:37:20;9.90;99.90
20068;DHT22;10194;50.824;7.134;2023-04-24T06:39:46;9.90;99.90
20068;DHT22;10194;50.824;7.134;2023-04-24T06:42:12;9.90;99.90
20068;DHT22;10194;50.824;7.134;2023-04-24T06:44:38;9.90;99.90
20068;DHT22;10194;50.824;7.134;2023-04-24T06:47:07;9.90;99.90
20068;DHT22;10194;50.824;7.134;2023-04-24T06:49:35;9.80;99.90
20068;DHT22;10194;50.824;7.134;2023-04-24T06:52:01;9.80;99.90
20068;DHT22;10194;50.824;7.134;2023-04-24T06:54:27;9.70;99.90
20068;DHT22;10194;50.824;7.134;2023-04-24T06:56:54;9.60;99.90
20068;DHT22;10194;50.824;7.134;2023-04-24T06:59:20;9.50;99.90
20068;DHT22;10194;50.824;7.134;2023-04-24T07:01:46;9.50;99.90
20068;DHT22;10194;50.824;7.134;2023-04-24T07:04:12;9.50;99.90
20068;DHT22;10194;50.824;7.134;2023-04-24T07:06:38;9.50;99.90
20068;DHT22;10194;50.824;7.134;2023-04-24T07:09:04;9.50;99.90
20068;DHT22;10194;50.824;7.134;2023-04-24T07:11:30;9.50;99.90
20068;DHT22;10194;50.824;7.134;2023-04-24T07:13:56;9.50;99.90
20068;DHT22;10194;50.824;7.134;2023-04-24T07:16:22;9.50;99.90
20068;DHT22;10194;50.824;7.134;2023-04-24T07:18:48;9.50;99.90
20068;DHT22;10194;50.824;7.134;2023-04-24T07:21:14;9.50;99.90
20068;DHT22;10194;50.824;7.134;2023-04-24T07:23:39;9.50;99.90
20068;DHT22;10194;50.824;7.134;2023-04-24T07:26:06;9.40;99.90
20068;DHT22;10194;50.824;7.134;2023-04-24T07:28:32;9.40;99.90
20068;DHT22;10194;50.824;7.134;2023-04-24T07:30:58;9.30;99.90
20068;DHT22;10194;50.824;7.134;2023-04-24T07:33:27;9.40;99.90
20068;DHT22;10194;50.824;7.134;2023-04-24T07:35:53;9.30;99.90
20068;DHT22;10194;50.824;7.134;2023-04-24T07:38:19;9.20;99.90
20068;DHT22;10194;50.824;7.134;2023-04-24T07:40:48;9.20;99.90
20068;DHT22;10194;50.824;7.134;2023-04-24T07:43:14;9.20;99.90
20068;DHT22;10194;50.824;7.134;2023-04-24T07:45:40;9.20;99.90
20068;DHT22;10194;50.824;7.134;2023-04-24T07:48:06;9.20;99.90
20068;DHT22;10194;50.824;7.134;2023-04-24T07:50:34;9.20;99.90
20068;DHT22;10194;50.824;7.134;2023-04-24T07:53:01;9.30;99.90
20068;DHT22;10194;50.824;7.134;2023-04-24T07:55:27;9.20;99.90
20068;DHT22;10194;50.824;7.134;2023-04-24T07:57:53;9.20;99.90
20068;DHT22;10194;50.824;7.134;2023-04-24T08:00:19;9.20;99.90
20068;DHT22;10194;50.824;7.134;2023-04-24T08:02:45;9.10;99.90
20068;DHT22;10194;50.824;7.134;2023-04-24T08:05:11;9.00;99.90
20068;DHT22;10194;50.824;7.134;2023-04-24T08:07:37;8.90;99.90
20068;DHT22;10194;50.824;7.134;2023-04-24T08:10:03;8.80;99.90
20068;DHT22;10194;50.824;7.134;2023-04-24T08:12:30;8.70;99.90
20068;DHT22;10194;50.824;7.134;2023-04-24T08:14:56;8.40;99.90
20068;DHT22;10194;50.824;7.134;2023-04-24T08:17:21;8.30;99.90
20068;DHT22;10194;50.824;7.134;2023-04-24T08:19:47;8.30;99.90
20068;DHT22;10194;50.824;7.134;2023-04-24T08:22:17;8.30;99.90
20068;DHT22;10194;50.824;7.134;2023-04-24T08:24:43;8.20;99.90
20068;DHT22;10194;50.824;7.134;2023-04-24T08:27:09;8.20;99.90
20068;DHT22;10194;50.824;7.134;2023-04-24T08:29:36;8.30;99.90
20068;DHT22;10194;50.824;7.134;2023-04-24T08:32:02;8.30;99.90
20068;DHT22;10194;50.824;7.134;2023-04-24T08:34:28;8.40;99.90
20068;DHT22;10194;50.824;7.134;2023-04-24T08:36:54;8.40;99.90
20068;DHT22;10194;50.824;7.134;2023-04-24T08:39:20;8.30;99.90
20068;DHT22;10194;50.824;7.134;2023-04-24T08:41:47;8.30;99.90
20068;DHT22;10194;50.824;7.134;2023-04-24T08:44:13;8.30;99.90
20068;DHT22;10194;50.824;7.134;2023-04-24T08:46:43;8.30;99.90
20068;DHT22;10194;50.824;7.134;2023-04-24T08:49:14;8.30;99.90
20068;DHT22;10194;50.824;7.134;2023-04-24T08:51:44;8.10;99.90
20068;DHT22;10194;50.824;7.134;2023-04-24T08:54:12;8.00;99.90
20068;DHT22;10194;50.824;7.134;2023-04-24T08:56:38;7.90;99.90
20068;DHT22;10194;50.824;7.134;2023-04-24T08:59:06;8.00;99.90
20068;DHT22;10194;50.824;7.134;2023-04-24T09:01:32;7.80;99.90
20068;DHT22;10194;50.824;7.134;2023-04-24T09:04:02;7.80;99.90
20068;DHT22;10194;50.824;7.134;2023-04-24T09:06:30;7.90;99.90
20068;DHT22;10194;50.824;7.134;2023-04-24T09:09:00;7.90;99.90
20068;DHT22;10194;50.824;7.134;2023-04-24T09:11:26;7.90;99.90
20068;DHT22;10194;50.824;7.134;2023-04-24T09:13:53;7.90;99.90
20068;DHT22;10194;50.824;7.134;2023-04-24T09:16:20;7.90;99.90
20068;DHT22;10194;50.824;7.134;2023-04-24T09:18:46;7.90;99.90
20068;DHT22;10194;50.824;7.134;2023-04-24T09:21:12;7.80;99.90
20068;DHT22;10194;50.824;7.134;2023-04-24T09:23:38;7.90;99.90
20068;DHT22;10194;50.824;7.134;2023-04-24T09:26:04;7.90;99.90
20068;DHT22;10194;50.824;7.134;2023-04-24T09:28:35;8.00;99.90
20068;DHT22;10194;50.824;7.134;2023-04-24T09:31:11;7.90;99.90
20068;DHT22;10194;50.824;7.134;2023-04-24T09:33:39;8.00;99.90
20068;DHT22;10194;50.824;7.134;2023-04-24T09:36:05;8.00;99.90
20068;DHT22;10194;50.824;7.134;2023-04-24T09:38:36;8.00;99.90
20068;DHT22;10194;50.824;7.134;2023-04-24T09:41:05;8.00;99.90
20068;DHT22;10194;50.824;7.134;2023-04-24T09:43:33;8.10;99.90
20068;DHT22;10194;50.824;7.134;2023-04-24T09:46:04;8.20;99.90
20068;DHT22;10194;50.824;7.134;2023-04-24T09:48:37;8.20;99.90
20068;DHT22;10194;50.824;7.134;2023-04-24T09:51:05;8.30;99.90
20068;DHT22;10194;50.824;7.134;2023-04-24T09:53:37;8.40;99.90
20068;DHT22;10194;50.824;7.134;2023-04-24T09:56:08;8.30;99.90
20068;DHT22;10194;50.824;7.134;2023-04-24T09:58:36;8.40;99.90
20068;DHT22;10194;50.824;7.134;2023-04-24T10:01:02;8.40;99.90
20068;DHT22;10194;50.824;7.134;2023-04-24T10:03:32;8.50;99.90
20068;DHT22;10194;50.824;7.134;2023-04-24T10:06:00;8.70;99.90
20068;DHT22;10194;50.824;7.134;2023-04-24T10:08:26;8.70;99.90
20068;DHT22;10194;50.824;7.134;2023-04-24T10:10:59;8.70;99.90
20068;DHT22;10194;50.824;7.134;2023-04-24T10:13:26;8.70;99.90
20068;DHT22;10194;50.824;7.134;2023-04-24T10:15:53;8.80;99.90
20068;DHT22;10194;50.824;7.134;2023-04-24T10:18:20;8.80;99.90
20068;DHT22;10194;50.824;7.134;2023-04-24T10:20:47;8.90;99.90
20068;DHT22;10194;50.824;7.134;2023-04-24T10:23:14;8.90;99.90
20068;DHT22;10194;50.824;7.134;2023-04-24T10:25:40;8.90;99.90
20068;DHT22;10194;50.824;7.134;2023-04-24T10:28:06;9.10;99.90
20068;DHT22;10194;50.824;7.134;2023-04-24T10:30:33;9.10;99.90
20068;DHT22;10194;50.824;7.134;2023-04-24T10:33:04;9.20;99.90
20068;DHT22;10194;50.824;7.134;2023-04-24T10:35:32;9.40;99.90
20068;DHT22;10194;50.824;7.134;2023-04-24T10:38:13;9.60;99.90
20068;DHT22;10194;50.824;7.134;2023-04-24T10:40:39;9.70;99.90
20068;DHT22;10194;50.824;7.134;2023-04-24T10:43:07;9.60;99.90
20068;DHT22;10194;50.824;7.134;2023-04-24T10:45:37;9.40;99.90
20068;DHT22;10194;50.824;7.134;2023-04-24T10:48:06;9.40;99.90
20068;DHT22;10194;50.824;7.134;2023-04-24T10:50:46;9.60;99.90
20068;DHT22;10194;50.824;7.134;2023-04-24T10:53:24;9.70;99.90
20068;DHT22;10194;50.824;7.134;2023-04-24T10:56:04;9.60;99.90
20068;DHT22;10194;50.824;7.134;2023-04-24T10:58:57;9.70;99.90
20068;DHT22;10194;50.824;7.134;2023-04-24T11:01:28;9.90;99.90
20068;DHT22;10194;50.824;7.134;2023-04-24T11:04:02;9.90;99.90
20068;DHT22;10194;50.824;7.134;2023-04-24T11:06:33;9.90;99.90
20068;DHT22;10194;50.824;7.134;2023-04-24T11:09:20;10.00;99.90
20068;DHT22;10194;50.824;7.134;2023-04-24T11:11:47;10.10;99.90
20068;DHT22;10194;50.824;7.134;2023-04-24T11:14:16;10.10;99.90
20068;DHT22;10194;50.824;7.134;2023-04-24T11:16:52;10.10;99.90
20068;DHT22;10194;50.824;7.134;2023-04-24T11:19:24;10.20;99.90
20068;DHT22;10194;50.824;7.134;2023-04-24T11:24:50;10.30;99.90
20068;DHT22;10194;50.824;7.134;2023-04-24T11:27:20;10.20;99.90
20068;DHT22;10194;50.824;7.134;2023-04-24T11:29:47;10.10;99.90
20068;DHT22;10194;50.824;7.134;2023-04-24T11:32:30;9.90;99.90
20068;DHT22;10194;50.824;7.134;2023-04-24T11:35:15;9.70;99.90
20068;DHT22;10194;50.824;7.134;2023-04-24T11:37:48;9.50;99.90
20068;DHT22;10194;50.824;7.134;2023-04-24T11:40:17;9.30;99.90
20068;DHT22;10194;50.824;7.134;2023-04-24T11:42:46;9.20;99.90
20068;DHT22;10194;50.824;7.134;2023-04-24T11:45:27;9.30;99.90
20068;DHT22;10194;50.824;7.134;2023-04-24T11:47:54;9.30;99.90
20068;DHT22;10194;50.824;7.134;2023-04-24T11:50:23;9.50;99.90
20068;DHT22;10194;50.824;7.134;2023-04-24T11:52:51;9.40;99.90
20068;DHT22;10194;50.824;7.134;2023-04-24T11:57:48;9.60;99.90
20068;DHT22;10194;50.824;7.134;2023-04-24T12:00:20;10.00;99.90
20068;DHT22;10194;50.824;7.134;2023-04-24T12:02:47;10.30;99.90
20068;DHT22;10194;50.824;7.134;2023-04-24T12:05:25;10.50;99.90
20068;DHT22;10194;50.824;7.134;2023-04-24T12:07:52;10.80;99.90
20068;DHT22;10194;50.824;7.134;2023-04-24T12:10:23;11.20;99.90
20068;DHT22;10194;50.824;7.134;2023-04-24T12:12:52;11.50;99.90
20068;DHT22;10194;50.824;7.134;2023-04-24T12:15:20;11.50;99.90
20068;DHT22;10194;50.824;7.134;2023-04-24T12:17:46;11.50;99.90
20068;DHT22;10194;50.824;7.134;2023-04-24T12:20:13;11.70;99.90
20068;DHT22;10194;50.824;7.134;2023-04-24T12:22:53;11.70;99.90
20068;DHT22;10194;50.824;7.134;2023-04-24T12:25:25;12.00;99.90
20068;DHT22;10194;50.824;7.134;2023-04-24T12:28:08;12.00;99.90
20068;DHT22;10194;50.824;7.134;2023-04-24T12:30:41;12.20;99.90
20068;DHT22;10194;50.824;7.134;2023-04-24T12:33:10;12.20;99.90
20068;DHT22;10194;50.824;7.134;2023-04-24T12:35:36;12.00;99.90
20068;DHT22;10194;50.824;7.134;2023-04-24T12:38:06;11.80;99.90
20068;DHT22;10194;50.824;7.134;2023-04-24T12:40:35;11.50;99.90
20068;DHT22;10194;50.824;7.134;2023-04-24T12:43:12;11.20;99.90
20068;DHT22;10194;50.824;7.134;2023-04-24T12:45:42;11.10;99.90
20068;DHT22;10194;50.824;7.134;2023-04-24T12:48:09;10.90;99.90
20068;DHT22;10194;50.824;7.134;2023-04-24T12:50:35;10.80;99.90
20068;DHT22;10194;50.824;7.134;2023-04-24T12:53:01;10.60;99.90
20068;DHT22;10194;50.824;7.134;2023-04-24T12:55:26;10.70;99.90
20068;DHT22;10194;50.824;7.134;2023-04-24T12:57:52;10.80;99.90
20068;DHT22;10194;50.824;7.134;2023-04-24T13:00:20;11.00;99.90
20068;DHT22;10194;50.824;7.134;2023-04-24T13:02:46;11.00;99.90
20068;DHT22;10194;50.824;7.134;2023-04-24T13:05:12;11.30;99.90
20068;DHT22;10194;50.824;7.134;2023-04-24T13:07:39;11.30;99.90
20068;DHT22;10194;50.824;7.134;2023-04-24T13:10:05;11.50;99.90
20068;DHT22;10194;50.824;7.134;2023-04-24T13:12:32;11.80;99.90
20068;DHT22;10194;50.824;7.134;2023-04-24T13:14:58;12.00;99.90
20068;DHT22;10194;50.824;7.134;2023-04-24T13:17:24;12.20;99.90
20068;DHT22;10194;50.824;7.134;2023-04-24T13:19:50;12.20;99.90
20068;DHT22;10194;50.824;7.134;2023-04-24T13:22:17;12.20;99.90
20068;DHT22;10194;50.824;7.134;2023-04-24T13:24:46;12.20;99.90
20068;DHT22;10194;50.824;7.134;2023-04-24T13:27:14;12.20;99.90
20068;DHT22;10194;50.824;7.134;2023-04-24T13:29:40;12.20;99.90
20068;DHT22;10194;50.824;7.134;2023-04-24T13:32:06;12.30;99.90
20068;DHT22;10194;50.824;7.134;2023-04-24T13:34:33;12.30;99.90
20068;DHT22;10194;50.824;7.134;2023-04-24T13:37:00;12.40;99.90
20068;DHT22;10194;50.824;7.134;2023-04-24T13:39:25;12.40;99.90
20068;DHT22;10194;50.824;7.134;2023-04-24T13:41:52;12.30;99.90
20068;DHT22;10194;50.824;7.134;2023-04-24T13:44:19;12.20;99.90
20068;DHT22;10194;50.824;7.134;2023-04-24T13:46:47;11.80;99.90
20068;DHT22;10194;50.824;7.134;2023-04-24T13:49:14;11.70;99.90
20068;DHT22;10194;50.824;7.134;2023-04-24T13:51:42;11.60;99.90
20068;DHT22;10194;50.824;7.134;2023-04-24T13:54:08;11.70;99.90
20068;DHT22;10194;50.824;7.134;2023-04-24T13:56:33;12.10;99.90
20068;DHT22;10194;50.824;7.134;2023-04-24T13:59:00;12.40;99.90
20068;DHT22;10194;50.824;7.134;2023-04-24T14:01:26;12.50;99.90
20068;DHT22;10194;50.824;7.134;2023-04-24T14:03:55;12.50;99.90
20068;DHT22;10194;50.824;7.134;2023-04-24T14:06:22;12.50;99.90
20068;DHT22;10194;50.824;7.134;2023-04-24T14:08:48;12.50;99.90
20068;DHT22;10194;50.824;7.134;2023-04-24T14:11:16;12.50;99.90
20068;DHT22;10194;50.824;7.134;2023-04-24T14:13:43;12.40;99.90
20068;DHT22;10194;50.824;7.134;2023-04-24T14:16:09;12.40;99.90
20068;DHT22;10194;50.824;7.134;2023-04-24T14:18:35;12.50;99.90
20068;DHT22;10194;50.824;7.134;2023-04-24T14:21:03;12.60;99.90
20068;DHT22;10194;50.824;7.134;2023-04-24T14:23:29;12.70;99.90
20068;DHT22;10194;50.824;7.134;2023-04-24T14:25:56;13.00;99.90
20068;DHT22;10194;50.824;7.134;2023-04-24T14:28:22;13.50;99.90
20068;DHT22;10194;50.824;7.134;2023-04-24T14:30:48;13.70;99.90
20068;DHT22;10194;50.824;7.134;2023-04-24T14:33:14;13.40;99.90
20068;DHT22;10194;50.824;7.134;2023-04-24T14:35:41;13.00;99.90
20068;DHT22;10194;50.824;7.134;2023-04-24T14:38:10;12.80;99.90
20068;DHT22;10194;50.824;7.134;2023-04-24T14:40:36;12.80;99.90
20068;DHT22;10194;50.824;7.134;2023-04-24T14:43:03;12.90;99.90
20068;DHT22;10194;50.824;7.134;2023-04-24T14:45:29;13.00;99.90
20068;DHT22;10194;50.824;7.134;2023-04-24T14:47:55;12.90;99.90
20068;DHT22;10194;50.824;7.134;2023-04-24T14:50:21;13.00;99.90
20068;DHT22;10194;50.824;7.134;2023-04-24T14:52:47;12.90;99.90
20068;DHT22;10194;50.824;7.134;2023-04-24T14:55:12;12.70;99.90
20068;DHT22;10194;50.824;7.134;2023-04-24T14:57:39;12.70;99.90
20068;DHT22;10194;50.824;7.134;2023-04-24T15:00:08;12.90;99.90
20068;DHT22;10194;50.824;7.134;2023-04-24T15:02:35;13.00;99.90
20068;DHT22;10194;50.824;7.134;2023-04-24T15:05:03;12.90;99.90
20068;DHT22;10194;50.824;7.134;2023-04-24T15:07:29;12.80;99.90
20068;DHT22;10194;50.824;7.134;2023-04-24T15:09:56;12.80;99.90
20068;DHT22;10194;50.824;7.134;2023-04-24T15:12:22;12.90;99.90
20068;DHT22;10194;50.824;7.134;2023-04-24T15:14:48;12.80;99.90
20068;DHT22;10194;50.824;7.134;2023-04-24T15:17:13;12.50;99.90
20068;DHT22;10194;50.824;7.134;2023-04-24T15:19:39;12.40;99.90
20068;DHT22;10194;50.824;7.134;2023-04-24T15:22:05;12.30;99.90
20068;DHT22;10194;50.824;7.134;2023-04-24T15:24:31;12.20;99.90
20068;DHT22;10194;50.824;7.134;2023-04-24T15:26:57;12.30;99.90
20068;DHT22;10194;50.824;7.134;2023-04-24T15:29:24;12.40;99.90
20068;DHT22;10194;50.824;7.134;2023-04-24T15:31:51;12.50;99.90
20068;DHT22;10194;50.824;7.134;2023-04-24T15:34:17;12.50;99.90
20068;DHT22;10194;50.824;7.134;2023-04-24T15:36:43;12.40;99.90
20068;DHT22;10194;50.824;7.134;2023-04-24T15:39:08;12.60;99.90
20068;DHT22;10194;50.824;7.134;2023-04-24T15:41:35;12.60;99.90
20068;DHT22;10194;50.824;7.134;2023-04-24T15:44:01;12.70;99.90